createdAt,value
2018-01-12T00:01:24.553Z,101607.86
2018-01-12T00:03:53.695Z,101604.36
2018-01-12T00:06:22.076Z,101606.23
2018-01-12T00:08:50.463Z,101603.89
2018-01-12T00:11:18.827Z,101597.49
2018-01-12T00:13:47.183Z,101605.86
2018-01-12T00:16:15.583Z,101598.44
2018-01-12T00:18:43.964Z,101602.66
2018-01-12T00:21:12.300Z,101610.81
2018-01-12T00:23:41.449Z,101611.89
2018-01-12T00:26:09.835Z,101616.25
2018-01-12T00:28:38.163Z,101612.93
2018-01-12T00:31:06.540Z,101619.53
2018-01-12T00:33:34.920Z,101615.97
2018-01-12T00:36:03.303Z,101616.95
2018-01-12T00:38:31.688Z,101619.34
2018-01-12T00:41:00.072Z,101623.23
2018-01-12T00:43:28.400Z,101632.30
2018-01-12T00:45:56.826Z,101630.63
2018-01-12T00:48:25.179Z,101635.35
2018-01-12T00:50:54.287Z,101624.88
2018-01-12T00:53:22.655Z,101621.34
2018-01-12T00:55:51.756Z,101623.86
2018-01-12T00:58:20.112Z,101636.51
2018-01-12T01:00:49.215Z,101641.33
2018-01-12T01:03:18.369Z,101653.78
2018-01-12T01:05:46.708Z,101649.09
2018-01-12T01:08:15.043Z,101652.27
2018-01-12T01:10:43.426Z,101652.94
2018-01-12T01:13:11.808Z,101662.30
2018-01-12T01:15:40.147Z,101665.02
2018-01-12T01:18:08.898Z,101671.19
2018-01-12T01:20:37.622Z,101673.84
2018-01-12T01:23:05.991Z,101677.10
2018-01-12T01:25:34.346Z,101675.98
2018-01-12T01:28:02.703Z,101679.30
2018-01-12T01:30:31.871Z,101680.54
2018-01-12T01:33:00.227Z,101671.75
2018-01-12T01:35:28.591Z,101685.52
2018-01-12T01:37:56.920Z,101681.55
2018-01-12T01:40:25.698Z,101687.50
2018-01-12T01:42:54.055Z,101682.38
2018-01-12T01:45:22.402Z,101684.46
2018-01-12T01:47:50.782Z,101686.55
2018-01-12T01:50:19.110Z,101687.39
2018-01-12T01:52:48.650Z,101694.80
2018-01-12T01:55:16.984Z,101696.20
2018-01-12T01:57:45.332Z,101697.36
2018-01-12T02:00:13.703Z,101696.02
2018-01-12T02:02:42.058Z,101694.58
2018-01-12T02:05:10.399Z,101697.02
2018-01-12T02:07:38.779Z,101696.00
2018-01-12T02:10:07.898Z,101704.39
2018-01-12T02:12:36.258Z,101703.91
2018-01-12T02:15:04.630Z,101706.37
2018-01-12T02:17:32.970Z,101704.56
2018-01-12T02:20:01.358Z,101709.80
2018-01-12T02:22:29.726Z,101708.91
2018-01-12T02:24:58.107Z,101711.30
2018-01-12T02:27:26.438Z,101712.24
2018-01-12T02:29:55.569Z,101710.94
2018-01-12T02:32:23.906Z,101718.56
2018-01-12T02:34:53.066Z,101719.62
2018-01-12T02:37:21.437Z,101717.55
2018-01-12T02:39:49.818Z,101729.84
2018-01-12T02:42:18.194Z,101731.66
2018-01-12T02:44:46.946Z,101726.27
2018-01-12T02:47:15.794Z,101727.20
2018-01-12T02:49:44.154Z,101731.91
2018-01-12T02:52:12.529Z,101739.17
2018-01-12T02:54:40.934Z,101738.13
2018-01-12T02:57:09.265Z,101742.63
2018-01-12T02:59:38.358Z,101747.06
2018-01-12T03:02:07.901Z,101752.77
2018-01-12T03:04:36.230Z,101758.30
2018-01-12T03:07:04.582Z,101754.65
2018-01-12T03:09:33.317Z,101752.81
2018-01-12T03:12:01.686Z,101750.36
2018-01-12T03:14:30.034Z,101754.70
2018-01-12T03:16:59.177Z,101759.80
2018-01-12T03:19:27.646Z,101754.66
2018-01-12T03:21:55.990Z,101755.09
2018-01-12T03:24:25.122Z,101761.88
2018-01-12T03:26:53.478Z,101764.19
2018-01-12T03:29:21.818Z,101759.63
2018-01-12T03:31:50.195Z,101753.78
2018-01-12T03:34:18.537Z,101761.84
2018-01-12T03:36:46.861Z,101762.80
2018-01-12T03:39:15.230Z,101768.21
2018-01-12T03:41:43.578Z,101768.95
2018-01-12T03:44:11.953Z,101765.05
2018-01-12T03:46:40.341Z,101762.54
2018-01-12T03:49:08.766Z,101758.09
2018-01-12T03:51:37.870Z,101758.87
2018-01-12T03:54:06.241Z,101763.64
2018-01-12T03:56:34.585Z,101764.30
2018-01-12T03:59:02.977Z,101772.63
2018-01-12T04:01:31.373Z,101771.69
2018-01-12T04:03:59.724Z,101779.23
2018-01-12T04:06:28.105Z,101780.30
2018-01-12T04:08:56.505Z,101783.34
2018-01-12T04:11:25.649Z,101786.77
2018-01-12T04:13:53.985Z,101789.77
2018-01-12T04:16:22.349Z,101790.95
2018-01-12T04:18:51.441Z,101793.67
2018-01-12T04:21:19.807Z,101791.38
2018-01-12T04:23:48.149Z,101799.76
2018-01-12T04:26:16.529Z,101794.41
2018-01-12T04:28:44.865Z,101794.01
2018-01-12T04:31:13.993Z,101801.61
2018-01-12T04:33:42.365Z,101801.23
2018-01-12T04:36:10.693Z,101805.08
2018-01-12T04:38:39.059Z,101802.29
2018-01-12T04:41:07.410Z,101807.22
2018-01-12T04:43:35.781Z,101809.34
2018-01-12T04:46:04.127Z,101813.21
2018-01-12T04:48:33.368Z,101818.80
2018-01-12T04:51:01.703Z,101817.05
2018-01-12T04:53:30.813Z,101823.84
2018-01-12T04:55:59.173Z,101821.52
2018-01-12T04:58:28.282Z,101821.50
2018-01-12T05:00:57.049Z,101820.28
2018-01-12T05:03:26.149Z,101819.29
2018-01-12T05:05:54.522Z,101829.73
2018-01-12T05:08:23.685Z,101829.94
2018-01-12T05:10:52.058Z,101831.95
2018-01-12T05:13:23.857Z,101829.26
2018-01-12T05:15:52.958Z,101838.02
2018-01-12T05:18:22.102Z,101839.55
2018-01-12T05:20:50.498Z,101840.79
2018-01-12T05:23:18.889Z,101842.85
2018-01-12T05:25:47.225Z,101848.91
2018-01-12T05:28:15.597Z,101850.20
2018-01-12T05:30:43.957Z,101844.25
2018-01-12T05:33:12.286Z,101855.60
2018-01-12T05:35:40.747Z,101850.17
2018-01-12T05:38:09.197Z,101860.02
2018-01-12T05:40:37.577Z,101855.79
2018-01-12T05:43:05.929Z,101854.06
2018-01-12T05:45:42.173Z,101860.08
2018-01-12T05:48:11.380Z,101865.16
2018-01-12T05:50:39.809Z,101865.42
2018-01-12T05:53:08.209Z,101863.70
2018-01-12T05:55:36.597Z,101864.37
2018-01-12T05:58:05.761Z,101876.27
2018-01-12T06:00:34.120Z,101872.92
2018-01-12T06:03:20.049Z,101872.77
2018-01-12T06:06:19.949Z,101875.75
2018-01-12T06:08:48.333Z,101877.13
2018-01-12T06:11:16.745Z,101881.83
2018-01-12T06:13:45.097Z,101882.75
2018-01-12T06:16:13.433Z,101882.77
2018-01-12T06:18:42.096Z,101882.62
2018-01-12T06:21:10.688Z,101879.85
2018-01-12T06:23:40.784Z,101881.63
2018-01-12T06:26:09.188Z,101895.25
2018-01-12T06:28:38.360Z,101896.64
2018-01-12T06:31:06.741Z,101902.88
2018-01-12T06:33:35.096Z,101900.12
2018-01-12T06:36:03.466Z,101911.16
2018-01-12T06:38:31.873Z,101920.77
2018-01-12T06:41:00.226Z,101914.52
2018-01-12T06:43:28.576Z,101919.13
2018-01-12T06:45:56.942Z,101921.25
2018-01-12T06:48:25.318Z,101922.75
2018-01-12T06:50:53.658Z,101924.69
2018-01-12T06:53:22.136Z,101930.64
2018-01-12T06:55:50.481Z,101936.70
2018-01-12T06:58:18.808Z,101927.72
2018-01-12T07:00:47.184Z,101933.16
2018-01-12T07:03:15.532Z,101933.40
2018-01-12T07:05:43.920Z,101938.47
2018-01-12T07:08:12.267Z,101946.45
2018-01-12T07:10:40.780Z,101945.67
2018-01-12T07:13:09.124Z,101949.41
2018-01-12T07:15:37.509Z,101948.43
2018-01-12T07:18:05.892Z,101948.69
2018-01-12T07:23:50.300Z,101949.59
2018-01-12T07:26:18.772Z,101953.19
2018-01-12T07:28:47.136Z,101955.52
2018-01-12T07:31:15.500Z,101963.50
2018-01-12T07:33:43.824Z,101962.92
2018-01-12T07:36:12.184Z,101970.29
2018-01-12T07:38:40.610Z,101974.98
2018-01-12T07:41:08.976Z,101976.20
2018-01-12T07:43:38.084Z,101983.38
2018-01-12T07:46:06.428Z,101982.37
2018-01-12T07:48:35.029Z,101993.94
2018-01-12T07:51:03.460Z,101996.45
2018-01-12T07:53:31.802Z,102000.52
2018-01-12T07:56:00.180Z,101996.01
2018-01-12T07:58:28.516Z,102006.45
2018-01-12T08:01:02.387Z,102011.11
2018-01-12T08:03:31.500Z,102004.48
2018-01-12T08:05:59.903Z,102011.00
2018-01-12T08:08:29.060Z,102009.52
2018-01-12T08:10:57.395Z,102005.48
2018-01-12T08:13:26.871Z,102009.60
2018-01-12T08:15:55.229Z,102015.63
2018-01-12T08:18:23.611Z,102005.33
2018-01-12T08:20:51.990Z,102015.06
2018-01-12T08:23:20.335Z,102016.84
2018-01-12T08:25:48.707Z,102016.23
2018-01-12T08:28:17.091Z,102026.13
2018-01-12T08:30:45.463Z,102023.68
2018-01-12T08:33:13.807Z,102029.11
2018-01-12T08:35:42.184Z,102029.75
2018-01-12T08:38:10.552Z,102031.84
2018-01-12T08:40:38.935Z,102036.62
2018-01-12T08:43:07.279Z,102041.69
2018-01-12T08:45:35.613Z,102043.70
2018-01-12T08:48:04.751Z,102049.50
2018-01-12T08:50:33.071Z,102054.74
2018-01-12T08:53:01.454Z,102058.61
2018-01-12T08:55:30.555Z,102054.07
2018-01-12T08:57:59.699Z,102056.27
2018-01-12T09:00:28.091Z,102061.77
2018-01-12T09:02:56.463Z,102065.28
2018-01-12T09:05:24.831Z,102067.73
2018-01-12T09:07:53.170Z,102078.48
2018-01-12T09:10:21.551Z,102074.17
2018-01-12T09:12:50.651Z,102081.60
2018-01-12T09:15:30.949Z,102079.58
2018-01-12T09:18:01.099Z,102083.09
2018-01-12T09:20:35.174Z,102086.64
2018-01-12T09:26:13.415Z,102096.95
2018-01-12T09:28:41.758Z,102098.86
2018-01-12T09:31:10.148Z,102098.20
2018-01-12T09:33:38.575Z,102096.33
2018-01-12T09:36:06.905Z,102098.44
2018-01-12T09:38:53.344Z,102102.89
2018-01-12T09:41:21.675Z,102096.12
2018-01-12T09:43:50.054Z,102097.48
2018-01-12T09:46:18.380Z,102105.77
2018-01-12T09:48:51.639Z,102104.14
2018-01-12T09:51:19.978Z,102105.53
2018-01-12T09:53:49.142Z,102105.47
2018-01-12T09:56:17.486Z,102108.48
2018-01-12T09:58:45.858Z,102105.98
2018-01-12T10:01:21.982Z,102099.74
2018-01-12T10:03:51.218Z,102106.52
2018-01-12T10:06:19.550Z,102107.14
2018-01-12T10:08:48.667Z,102103.87
2018-01-12T10:11:17.040Z,102107.81
2018-01-12T10:13:46.134Z,102115.25
2018-01-12T10:16:15.270Z,102109.45
2018-01-12T10:18:43.606Z,102105.56
2018-01-12T10:21:30.495Z,102104.14
2018-01-12T10:23:58.823Z,102106.72
2018-01-12T10:26:27.194Z,102101.52
2018-01-12T10:29:07.240Z,102109.00
2018-01-12T10:31:51.446Z,102108.94
2018-01-12T10:34:45.454Z,102117.53
2018-01-12T10:37:14.588Z,102114.41
2018-01-12T10:40:00.820Z,102108.31
2018-01-12T10:42:29.198Z,102116.23
2018-01-12T10:44:57.571Z,102119.95
2018-01-12T10:47:27.505Z,102119.91
2018-01-12T10:50:18.045Z,102120.21
2018-01-12T10:52:50.343Z,102126.67
2018-01-12T10:55:18.710Z,102129.80
2018-01-12T10:57:47.043Z,102125.95
2018-01-12T11:00:33.234Z,102126.53
2018-01-12T11:03:02.966Z,102126.77
2018-01-12T11:05:31.332Z,102124.78
2018-01-12T11:07:59.718Z,102125.38
2018-01-12T11:10:28.057Z,102122.98
2018-01-12T11:12:56.497Z,102125.86
2018-01-12T11:15:24.834Z,102128.19
2018-01-12T11:17:53.979Z,102133.30
2018-01-12T11:20:22.323Z,102132.89
2018-01-12T11:22:50.677Z,102129.56
2018-01-12T11:25:19.773Z,102126.75
2018-01-12T11:27:48.914Z,102132.63
2018-01-12T11:30:17.245Z,102133.82
2018-01-12T11:32:46.337Z,102138.63
2018-01-12T11:35:15.473Z,102140.23
2018-01-12T11:37:43.813Z,102138.72
2018-01-12T11:40:12.938Z,102143.17
2018-01-12T11:42:41.306Z,102143.05
2018-01-12T11:45:09.722Z,102143.59
2018-01-12T11:47:38.804Z,102146.52
2018-01-12T11:50:07.182Z,102144.59
2018-01-12T11:52:35.513Z,102144.17
2018-01-12T11:55:04.669Z,102146.16
2018-01-12T11:57:33.041Z,102134.39
2018-01-12T12:00:01.367Z,102138.70
2018-01-12T12:02:30.466Z,102141.20
2018-01-12T12:04:59.604Z,102146.91
2018-01-12T12:07:27.949Z,102143.53
2018-01-12T12:09:57.081Z,102141.86
2018-01-12T12:12:25.413Z,102141.24
2018-01-12T12:14:54.545Z,102143.55
2018-01-12T12:17:22.909Z,102144.69
2018-01-12T12:19:51.233Z,102146.25
2018-01-12T12:22:19.598Z,102142.45
2018-01-12T12:24:47.927Z,102150.05
2018-01-12T12:27:16.317Z,102147.67
2018-01-12T12:29:44.681Z,102146.72
2018-01-12T12:32:13.782Z,102146.22
2018-01-12T12:34:42.150Z,102150.77
2018-01-12T12:37:11.284Z,102145.61
2018-01-12T12:39:39.670Z,102146.91
2018-01-12T12:42:08.057Z,102148.48
2018-01-12T12:44:36.399Z,102149.85
2018-01-12T12:47:04.726Z,102155.02
2018-01-12T12:49:33.963Z,102156.45
2018-01-12T12:52:02.349Z,102156.58
2018-01-12T12:54:30.734Z,102156.10
2018-01-12T12:56:59.318Z,102155.55
2018-01-12T12:59:27.694Z,102159.19
2018-01-12T13:01:56.035Z,102156.87
2018-01-12T13:04:25.773Z,102154.20
2018-01-12T13:06:54.169Z,102158.59
2018-01-12T13:09:22.493Z,102159.39
2018-01-12T13:11:50.858Z,102160.77
2018-01-12T13:14:19.197Z,102160.41
2018-01-12T13:16:47.570Z,102157.86
2018-01-12T13:19:15.953Z,102157.82
2018-01-12T13:21:44.296Z,102162.91
2018-01-12T13:24:13.397Z,102159.37
2018-01-12T13:26:42.553Z,102168.77
2018-01-12T13:29:10.924Z,102164.98
2018-01-12T13:31:39.302Z,102168.77
2018-01-12T13:34:09.612Z,102167.12
2018-01-12T13:36:39.725Z,102167.72
2018-01-12T13:39:08.061Z,102171.48
2018-01-12T13:41:36.857Z,102170.66
2018-01-12T13:44:05.385Z,102171.33
2018-01-12T13:46:33.733Z,102170.78
2018-01-12T13:49:02.098Z,102177.52
2018-01-12T13:51:31.192Z,102182.20
2018-01-12T13:54:00.320Z,102174.20
2018-01-12T13:56:29.436Z,102184.66
2018-01-12T13:58:57.808Z,102196.84
2018-01-12T14:01:26.188Z,102190.58
2018-01-12T14:03:54.550Z,102196.18
2018-01-12T14:06:22.910Z,102198.16
2018-01-12T14:08:51.266Z,102204.80
2018-01-12T14:11:20.384Z,102206.23
2018-01-12T14:13:48.760Z,102215.71
2018-01-12T14:16:17.106Z,102214.28
2018-01-12T14:18:45.504Z,102214.34
2018-01-12T14:21:14.678Z,102213.22
2018-01-12T14:23:43.052Z,102216.16
2018-01-12T14:26:11.385Z,102213.98
2018-01-12T14:28:39.764Z,102220.27
2018-01-12T14:31:08.100Z,102214.53
2018-01-12T14:33:37.244Z,102213.28
2018-01-12T14:36:06.446Z,102222.84
2018-01-12T14:38:34.872Z,102221.19
2018-01-12T14:41:04.020Z,102225.67
2018-01-12T14:43:32.870Z,102229.33
2018-01-12T14:46:02.027Z,102233.69
2018-01-12T14:48:30.392Z,102237.13
2018-01-12T14:50:58.756Z,102244.10
2018-01-12T14:53:27.601Z,102250.92
2018-01-12T14:55:56.724Z,102257.36
2018-01-12T14:58:25.065Z,102254.05
2018-01-12T15:00:53.432Z,102255.84
2018-01-12T15:03:21.772Z,102258.20
2018-01-12T15:05:50.148Z,102259.00
2018-01-12T15:08:18.529Z,102265.56
2018-01-12T15:10:46.895Z,102267.80
2018-01-12T15:13:15.256Z,102273.31
2018-01-12T15:15:44.460Z,102263.04
2018-01-12T15:18:12.868Z,102266.09
2018-01-12T15:20:41.256Z,102269.53
2018-01-12T15:23:09.609Z,102272.77
2018-01-12T15:25:38.104Z,102268.10
2018-01-12T15:28:06.492Z,102266.45
2018-01-12T15:30:34.840Z,102264.06
2018-01-12T15:33:03.335Z,102265.09
2018-01-12T15:35:31.696Z,102265.25
2018-01-12T15:38:00.100Z,102264.70
2018-01-12T15:40:28.441Z,102265.44
2018-01-12T15:42:57.593Z,102271.19
2018-01-12T15:45:25.988Z,102267.86
2018-01-12T15:47:55.152Z,102267.98
2018-01-12T15:50:23.516Z,102270.19
2018-01-12T15:52:52.063Z,102266.52
2018-01-12T15:55:21.190Z,102270.34
2018-01-12T15:57:49.679Z,102265.34
2018-01-12T16:00:18.189Z,102278.58
2018-01-12T16:02:46.609Z,102273.66
2018-01-12T16:05:15.046Z,102273.69
2018-01-12T16:07:43.490Z,102281.13
2018-01-12T16:10:13.009Z,102278.86
2018-01-12T16:12:41.554Z,102276.78
2018-01-12T16:15:10.677Z,102283.64
2018-01-12T16:17:39.057Z,102289.92
2018-01-12T16:20:08.384Z,102285.17
2018-01-12T16:22:37.525Z,102285.55
2018-01-12T16:25:06.777Z,102282.02
2018-01-12T16:27:35.139Z,102282.46
2018-01-12T16:30:03.708Z,102284.47
2018-01-12T16:32:32.117Z,102287.34
2018-01-12T16:35:00.509Z,102289.19
2018-01-12T16:37:28.977Z,102292.34
2018-01-12T16:40:03.431Z,102292.08
2018-01-12T16:42:32.570Z,102297.67
2018-01-12T16:45:01.095Z,102291.70
2018-01-12T16:47:29.515Z,102298.63
2018-01-12T16:49:57.910Z,102297.98
2018-01-12T16:52:26.293Z,102297.00
2018-01-12T16:54:54.712Z,102301.91
2018-01-12T16:57:23.533Z,102302.64
2018-01-12T16:59:51.927Z,102303.02
2018-01-12T17:02:21.214Z,102302.13
2018-01-12T17:04:49.635Z,102315.91
2018-01-12T17:07:18.240Z,102311.59
2018-01-12T17:09:48.110Z,102312.17
2018-01-12T17:12:16.883Z,102307.42
2018-01-12T17:14:45.227Z,102316.22
2018-01-12T17:17:14.375Z,102318.06
2018-01-12T17:19:42.741Z,102326.03
2018-01-12T17:22:11.144Z,102331.39
2018-01-12T17:24:40.354Z,102336.93
2018-01-12T17:27:08.776Z,102330.88
2018-01-12T17:29:37.183Z,102333.02
2018-01-12T17:32:05.600Z,102342.78
2018-01-12T17:34:34.972Z,102336.77
2018-01-12T17:37:03.425Z,102342.44
2018-01-12T17:39:31.855Z,102344.06
2018-01-12T17:42:00.331Z,102345.75
2018-01-12T17:44:28.775Z,102347.20
2018-01-12T17:46:57.163Z,102345.66
2018-01-12T17:49:25.563Z,102352.17
2018-01-12T17:51:53.947Z,102353.62
2018-01-12T17:54:22.347Z,102346.88
2018-01-12T17:56:50.747Z,102348.80
2018-01-12T17:59:19.853Z,102353.83
2018-01-12T18:01:48.243Z,102350.87
2018-01-12T18:04:16.700Z,102354.59
2018-01-12T18:06:45.062Z,102346.47
2018-01-12T18:09:14.667Z,102357.73
2018-01-12T18:11:43.331Z,102362.72
2018-01-12T18:14:11.840Z,102357.48
2018-01-12T18:16:41.091Z,102352.34
2018-01-12T18:19:09.549Z,102358.05
2018-01-12T18:21:38.584Z,102357.09
2018-01-12T18:24:07.031Z,102359.19
2018-01-12T18:26:35.383Z,102346.85
2018-01-12T18:29:03.864Z,102351.59
2018-01-12T18:31:32.411Z,102351.52
2018-01-12T18:34:01.570Z,102353.41
2018-01-12T18:36:29.999Z,102351.34
2018-01-12T18:38:58.454Z,102353.80
2018-01-12T18:41:26.819Z,102350.34
2018-01-12T18:43:55.759Z,102354.16
2018-01-12T18:46:24.218Z,102347.23
2018-01-12T18:48:52.561Z,102356.90
2018-01-12T18:51:21.010Z,102361.06
2018-01-12T18:53:49.483Z,102358.66
2018-01-12T18:56:17.930Z,102359.41
2018-01-12T18:58:46.314Z,102367.30
2018-01-12T19:01:15.938Z,102362.41
2018-01-12T19:03:45.444Z,102368.28
2018-01-12T19:06:14.746Z,102382.16
2018-01-12T19:08:43.858Z,102376.78
2018-01-12T19:11:12.398Z,102373.32
2018-01-12T19:13:41.095Z,102380.20
2018-01-12T19:16:11.053Z,102383.13
2018-01-12T19:18:41.193Z,102383.36
2018-01-12T19:21:10.870Z,102381.72
2018-01-12T19:23:39.301Z,102383.78
2018-01-12T19:26:08.583Z,102384.84
2018-01-12T19:28:38.011Z,102381.16
2018-01-12T19:31:06.343Z,102391.00
2018-01-12T19:33:34.701Z,102396.19
2018-01-12T19:36:03.112Z,102404.41
2018-01-12T19:38:32.383Z,102399.66
2018-01-12T19:41:00.775Z,102404.44
2018-01-12T19:43:29.155Z,102408.67
2018-01-12T19:45:57.578Z,102404.38
2018-01-12T19:48:25.940Z,102394.61
2018-01-12T19:50:55.015Z,102414.27
2018-01-12T19:53:23.409Z,102414.69
2018-01-12T19:55:51.937Z,102414.14
2018-01-12T19:58:22.085Z,102420.67
2018-01-12T20:00:52.114Z,102418.30
2018-01-12T20:03:21.325Z,102421.70
2018-01-12T20:05:50.093Z,102420.95
2018-01-12T20:08:18.461Z,102420.67
2018-01-12T20:10:47.661Z,102423.23
2018-01-12T20:13:16.221Z,102424.03
2018-01-12T20:15:45.453Z,102434.03
2018-01-12T20:18:14.797Z,102428.32
2018-01-12T20:20:43.161Z,102431.36
2018-01-12T20:23:11.686Z,102429.25
2018-01-12T20:25:40.893Z,102434.59
2018-01-12T20:28:11.118Z,102433.12
2018-01-12T20:30:40.513Z,102438.61
2018-01-12T20:33:09.792Z,102428.77
2018-01-12T20:35:39.000Z,102436.78
2018-01-12T20:38:07.921Z,102442.83
2018-01-12T20:40:36.369Z,102437.21
2018-01-12T20:43:04.987Z,102439.95
2018-01-12T20:45:33.573Z,102439.31
2018-01-12T20:48:03.733Z,102439.72
2018-01-12T20:50:32.155Z,102432.09
2018-01-12T20:53:00.593Z,102438.28
2018-01-12T20:55:28.991Z,102447.52
2018-01-12T20:57:58.953Z,102451.08
2018-01-12T21:00:27.333Z,102446.94
2018-01-12T21:02:55.833Z,102447.66
2018-01-12T21:05:25.053Z,102447.95
2018-01-12T21:07:56.800Z,102451.20
2018-01-12T21:10:25.276Z,102451.72
2018-01-12T21:12:53.657Z,102455.19
2018-01-12T21:15:22.692Z,102454.66
2018-01-12T21:17:51.072Z,102456.16
2018-01-12T21:20:19.473Z,102455.30
2018-01-12T21:22:49.224Z,102446.09
2018-01-12T21:25:18.373Z,102457.39
2018-01-12T21:27:48.271Z,102460.59
2018-01-12T21:30:17.229Z,102456.80
2018-01-12T21:32:45.601Z,102452.31
2018-01-12T21:35:14.769Z,102456.75
2018-01-12T21:37:43.169Z,102461.98
2018-01-12T21:40:11.525Z,102466.00
2018-01-12T21:42:40.875Z,102462.39
2018-01-12T21:45:10.629Z,102460.97
2018-01-12T21:47:39.897Z,102460.98
2018-01-12T21:50:08.247Z,102463.94
2018-01-12T21:52:36.634Z,102465.97
2018-01-12T21:55:05.778Z,102463.58
2018-01-12T21:57:34.829Z,102469.73
2018-01-12T22:00:03.977Z,102471.55
2018-01-12T22:02:32.355Z,102468.47
2018-01-12T22:05:00.725Z,102470.66
2018-01-12T22:07:29.109Z,102472.30
2018-01-12T22:09:59.481Z,102478.91
2018-01-12T22:12:29.593Z,102454.07
2018-01-12T22:14:59.661Z,102480.81
2018-01-12T22:17:28.911Z,102481.56
2018-01-12T22:19:58.041Z,102482.27
2018-01-12T22:22:26.412Z,102484.44
2018-01-12T22:24:55.562Z,102475.85
2018-01-12T22:27:24.753Z,102480.25
2018-01-12T22:29:53.188Z,102486.08
2018-01-12T22:32:21.571Z,102485.07
2018-01-12T22:34:49.932Z,102482.20
2018-01-12T22:37:18.304Z,102479.12
2018-01-12T22:39:47.564Z,102479.88
2018-01-12T22:42:16.668Z,102479.45
2018-01-12T22:44:45.077Z,102482.08
2018-01-12T22:47:13.425Z,102488.98
2018-01-12T22:49:41.801Z,102493.08
2018-01-12T22:52:10.152Z,102494.02
2018-01-12T22:54:38.976Z,102494.66
2018-01-12T22:57:07.348Z,102487.52
2018-01-12T22:59:35.700Z,102485.28
2018-01-12T23:02:04.074Z,102492.78
2018-01-12T23:04:32.480Z,102489.61
2018-01-12T23:07:00.894Z,102490.95
2018-01-12T23:09:30.009Z,102483.35
2018-01-12T23:11:58.378Z,102476.86
2018-01-12T23:14:26.752Z,102479.33
2018-01-12T23:16:55.128Z,102477.64
2018-01-12T23:19:23.456Z,102468.84
2018-01-12T23:21:51.800Z,102478.28
2018-01-12T23:24:20.176Z,102475.45
2018-01-12T23:26:48.592Z,102474.77
2018-01-12T23:29:16.944Z,102468.64
2018-01-12T23:31:45.294Z,102467.27
2018-01-12T23:34:13.672Z,102471.67
2018-01-12T23:36:42.028Z,102476.52
2018-01-12T23:39:10.412Z,102473.38
2018-01-12T23:41:39.540Z,102473.91
2018-01-12T23:44:07.908Z,102471.08
2018-01-12T23:46:36.288Z,102473.38
2018-01-12T23:49:04.757Z,102468.28
2018-01-12T23:51:33.849Z,102473.79
2018-01-12T23:54:02.974Z,102471.55
2018-01-12T23:56:31.330Z,102466.94
2018-01-12T23:58:59.712Z,102464.44
